Terminal Aerodrome Forecast
Issued by NWS

Home | Current Version | Previous Version | Text Only | Print | Product List | Glossary On
Versions: 1 2 3 4 5 6 7 8 9 10 11 12
778
FTUS42 TJSJ 271730
TAFJMZ
TAF
TJMZ 271730Z 2718/2818 29010KT P6SM VCSH BKN040
     FM272300 07004KT P6SM FEW060
     FM281400 23006KT P6SM VCSH SCT030 BKN050
      AMD NOT SKED=

USA.gov is the U.S. government's official web portal to all federal, state and local government web resources and services.